createdAt,value
2017-08-17T00:01:20.083Z,12.80
2017-08-17T00:03:46.151Z,14.13
2017-08-17T00:06:12.117Z,15.53
2017-08-17T00:08:38.092Z,12.87
2017-08-17T00:11:04.065Z,13.10
2017-08-17T00:13:31.727Z,12.73
2017-08-17T00:15:57.790Z,13.77
2017-08-17T00:18:23.853Z,13.27
2017-08-17T00:20:49.852Z,14.10
2017-08-17T00:23:15.841Z,13.33
2017-08-17T00:25:41.788Z,12.30
2017-08-17T00:28:07.772Z,13.90
2017-08-17T00:30:34.750Z,13.07
2017-08-17T00:33:00.697Z,12.90
2017-08-17T00:35:26.663Z,13.03
2017-08-17T00:37:53.384Z,14.70
2017-08-17T00:40:19.440Z,15.23
2017-08-17T00:42:45.380Z,13.90
2017-08-17T00:45:11.411Z,13.17
2017-08-17T00:47:37.401Z,13.67
2017-08-17T00:50:03.425Z,14.50
2017-08-17T00:52:29.380Z,17.63
2017-08-17T00:54:55.399Z,13.93
2017-08-17T00:57:21.371Z,14.77
2017-08-17T00:59:47.345Z,14.20
2017-08-17T01:02:13.287Z,14.70
2017-08-17T01:04:39.225Z,16.43
2017-08-17T01:07:05.916Z,14.80
2017-08-17T01:09:31.919Z,18.63
2017-08-17T01:11:57.964Z,12.77
2017-08-17T01:14:23.963Z,14.53
2017-08-17T01:16:49.981Z,14.40
2017-08-17T01:19:16.004Z,14.23
2017-08-17T01:21:42.026Z,13.90
2017-08-17T01:24:07.980Z,14.57
2017-08-17T01:26:33.984Z,14.43
2017-08-17T01:28:59.955Z,13.27
2017-08-17T01:31:26.653Z,16.73
2017-08-17T01:33:52.613Z,14.53
2017-08-17T01:36:18.567Z,15.30
2017-08-17T01:38:44.506Z,13.70
2017-08-17T01:41:10.488Z,14.37
2017-08-17T01:43:37.196Z,14.40
2017-08-17T01:46:03.136Z,13.37
2017-08-17T01:48:29.141Z,14.83
2017-08-17T01:50:55.598Z,15.20
2017-08-17T01:53:21.574Z,16.60
2017-08-17T01:55:47.585Z,13.13
2017-08-17T01:58:13.563Z,13.77
2017-08-17T02:00:39.562Z,14.13
2017-08-17T02:03:05.659Z,12.93
2017-08-17T02:05:31.718Z,13.37
2017-08-17T02:07:57.712Z,15.00
2017-08-17T02:10:23.680Z,14.53
2017-08-17T02:12:50.452Z,14.73
2017-08-17T02:15:16.499Z,15.40
2017-08-17T02:17:42.475Z,13.27
2017-08-17T02:20:08.467Z,14.40
2017-08-17T02:22:34.607Z,15.50
2017-08-17T02:25:00.588Z,15.30
2017-08-17T02:27:26.540Z,14.30
2017-08-17T02:29:52.560Z,12.10
2017-08-17T02:32:19.317Z,14.30
2017-08-17T02:34:45.382Z,16.93
2017-08-17T02:37:11.344Z,15.67
2017-08-17T02:39:37.389Z,15.30
2017-08-17T02:42:03.405Z,14.03
2017-08-17T02:44:30.137Z,15.83
2017-08-17T02:46:56.382Z,14.50
2017-08-17T02:49:22.392Z,15.73
2017-08-17T02:51:49.091Z,13.40
2017-08-17T02:54:15.055Z,15.50
2017-08-17T02:56:41.065Z,14.90
2017-08-17T02:59:07.787Z,14.27
2017-08-17T03:01:33.825Z,17.23
2017-08-17T03:03:59.771Z,13.93
2017-08-17T03:06:26.467Z,15.10
2017-08-17T03:08:52.518Z,14.50
2017-08-17T03:11:18.518Z,16.37
2017-08-17T03:13:44.476Z,13.90
2017-08-17T03:16:10.425Z,14.80
2017-08-17T03:18:36.573Z,15.20
2017-08-17T03:21:02.651Z,14.17
2017-08-17T03:23:28.652Z,13.50
2017-08-17T03:25:55.364Z,14.83
2017-08-17T03:28:21.417Z,14.70
2017-08-17T03:30:48.068Z,15.50
2017-08-17T03:33:14.037Z,16.70
2017-08-17T03:35:40.003Z,15.90
2017-08-17T03:38:06.016Z,18.53
2017-08-17T03:40:32.783Z,14.50
2017-08-17T03:42:58.767Z,17.50
2017-08-17T03:45:24.755Z,18.80
2017-08-17T03:47:50.707Z,17.77
2017-08-17T03:50:16.733Z,18.50
2017-08-17T03:52:42.772Z,16.57
2017-08-17T03:55:08.795Z,16.40
2017-08-17T03:57:35.804Z,17.23
2017-08-17T04:00:01.849Z,15.77
2017-08-17T04:02:27.827Z,16.90
2017-08-17T04:04:53.787Z,17.20
2017-08-17T04:07:19.800Z,16.77
2017-08-17T04:09:46.550Z,15.97
2017-08-17T04:12:12.547Z,18.43
2017-08-17T04:14:38.655Z,18.40
2017-08-17T04:17:04.704Z,18.33
2017-08-17T04:19:30.784Z,15.90
2017-08-17T04:21:56.800Z,13.33
2017-08-17T04:24:22.875Z,15.20
2017-08-17T04:26:48.842Z,14.80
2017-08-17T04:29:15.439Z,18.93
2017-08-17T04:31:41.492Z,15.03
2017-08-17T04:34:07.601Z,15.77
2017-08-17T04:36:33.611Z,14.67
2017-08-17T04:39:00.478Z,17.50
2017-08-17T04:41:27.366Z,17.17
2017-08-17T04:43:54.110Z,16.87
2017-08-17T04:46:20.192Z,15.37
2017-08-17T04:48:46.159Z,16.60
2017-08-17T04:51:12.149Z,16.17
2017-08-17T04:53:38.138Z,15.43
2017-08-17T04:56:22.658Z,15.40
2017-08-17T04:58:48.653Z,17.37
2017-08-17T05:01:14.685Z,15.20
2017-08-17T05:03:40.716Z,15.70
2017-08-17T05:06:06.659Z,15.73
2017-08-17T05:08:32.630Z,15.57
2017-08-17T05:10:58.618Z,15.10
2017-08-17T05:13:24.612Z,15.47
2017-08-17T05:15:50.560Z,16.17
2017-08-17T05:18:16.541Z,15.77
2017-08-17T05:20:42.504Z,15.00
2017-08-17T05:23:08.633Z,14.50
2017-08-17T05:25:34.630Z,16.90
2017-08-17T05:28:00.817Z,20.40
2017-08-17T05:30:26.784Z,17.83
2017-08-17T05:32:52.768Z,17.77
2017-08-17T05:35:18.731Z,26.17
2017-08-17T05:37:44.728Z,20.03
2017-08-17T05:40:11.611Z,19.97
2017-08-17T05:42:37.540Z,20.30
2017-08-17T05:45:04.474Z,22.47
2017-08-17T05:47:30.498Z,16.83
2017-08-17T05:49:56.434Z,16.53
2017-08-17T05:52:23.112Z,19.37
2017-08-17T05:54:49.089Z,22.13
2017-08-17T05:57:15.326Z,21.50
2017-08-17T05:59:41.307Z,18.67
2017-08-17T06:02:07.259Z,18.00
2017-08-17T06:04:34.069Z,21.00
2017-08-17T06:07:00.103Z,16.80
2017-08-17T06:09:26.127Z,19.27
2017-08-17T06:11:52.110Z,17.97
2017-08-17T06:14:18.152Z,18.50
2017-08-17T06:16:44.211Z,18.07
2017-08-17T06:19:10.234Z,19.83
2017-08-17T06:21:37.005Z,16.03
2017-08-17T06:24:03.058Z,15.60
2017-08-17T06:26:29.050Z,15.43
2017-08-17T06:28:56.128Z,15.50
2017-08-17T06:31:22.162Z,16.17
2017-08-17T06:33:48.124Z,14.90
2017-08-17T06:36:14.114Z,18.03
2017-08-17T06:38:40.127Z,14.27
2017-08-17T06:41:06.069Z,15.43
2017-08-17T06:43:32.146Z,15.03
2017-08-17T06:45:58.056Z,13.73
2017-08-17T06:48:24.041Z,15.53
2017-08-17T06:50:50.064Z,17.87
2017-08-17T06:53:16.034Z,12.30
2017-08-17T06:55:42.002Z,15.60
2017-08-17T06:58:08.019Z,14.23
2017-08-17T07:00:34.968Z,15.93
2017-08-17T07:03:00.964Z,15.20
2017-08-17T07:05:27.139Z,14.13
2017-08-17T07:07:53.160Z,13.37
2017-08-17T07:10:22.438Z,18.40
2017-08-17T07:12:48.464Z,15.80
2017-08-17T07:15:16.896Z,13.83
2017-08-17T07:17:43.222Z,13.87
2017-08-17T07:20:09.349Z,19.77
2017-08-17T07:22:35.531Z,14.80
2017-08-17T07:25:01.477Z,18.50
2017-08-17T07:27:27.460Z,13.73
2017-08-17T07:29:53.492Z,13.60
2017-08-17T07:32:19.651Z,13.63
2017-08-17T07:34:45.748Z,13.10
2017-08-17T07:37:11.749Z,12.93
2017-08-17T07:39:37.828Z,13.10
2017-08-17T07:42:05.070Z,11.13
2017-08-17T07:44:31.272Z,11.80
2017-08-17T07:46:58.016Z,11.60
2017-08-17T07:49:24.040Z,15.70
2017-08-17T07:51:49.989Z,11.83
2017-08-17T07:54:16.599Z,13.10
2017-08-17T07:56:42.569Z,12.43
2017-08-17T07:59:08.732Z,12.20
2017-08-17T08:01:34.904Z,11.23
2017-08-17T08:04:01.187Z,13.70
2017-08-17T08:06:27.125Z,12.53
2017-08-17T08:08:53.168Z,12.80
2017-08-17T08:11:19.755Z,16.87
2017-08-17T08:13:46.780Z,15.00
2017-08-17T08:16:12.808Z,12.90
2017-08-17T08:18:38.837Z,13.03
2017-08-17T08:21:04.819Z,11.80
2017-08-17T08:23:30.759Z,14.23
2017-08-17T08:25:56.865Z,14.37
2017-08-17T08:28:22.846Z,16.70
2017-08-17T08:30:48.912Z,13.00
2017-08-17T08:33:14.891Z,12.80
2017-08-17T08:35:40.945Z,12.50
2017-08-17T08:38:08.086Z,11.13
2017-08-17T08:40:34.073Z,11.17
2017-08-17T08:43:00.109Z,12.10
2017-08-17T08:45:26.915Z,12.57
2017-08-17T08:47:52.979Z,14.63
2017-08-17T08:50:18.943Z,12.37
2017-08-17T08:52:44.949Z,11.90
2017-08-17T08:55:10.944Z,13.03
2017-08-17T08:57:37.693Z,13.53
2017-08-17T09:00:03.691Z,12.97
2017-08-17T09:02:29.687Z,13.37
2017-08-17T09:04:55.856Z,15.57
2017-08-17T09:07:23.449Z,15.87
2017-08-17T09:09:49.430Z,16.53
2017-08-17T09:12:15.419Z,19.40
2017-08-17T09:14:41.430Z,16.83
2017-08-17T09:17:09.435Z,18.40
2017-08-17T09:19:37.135Z,17.13
2017-08-17T09:22:04.024Z,16.47
2017-08-17T09:24:31.867Z,18.83
2017-08-17T09:26:57.870Z,18.57
2017-08-17T09:29:25.595Z,18.73
2017-08-17T09:31:51.579Z,16.30
2017-08-17T09:34:17.596Z,15.07
2017-08-17T09:36:43.572Z,15.27
2017-08-17T09:39:09.546Z,16.30
2017-08-17T09:41:35.506Z,16.80
2017-08-17T09:44:02.208Z,16.43
2017-08-17T09:46:29.396Z,16.83
2017-08-17T09:48:56.132Z,18.83
2017-08-17T09:51:22.786Z,19.50
2017-08-17T09:53:52.437Z,19.87
2017-08-17T09:56:18.436Z,19.03
2017-08-17T09:58:45.298Z,18.13
2017-08-17T10:01:11.376Z,19.37
2017-08-17T10:03:37.411Z,20.07
2017-08-17T10:06:03.437Z,17.83
2017-08-17T10:08:29.397Z,17.80
2017-08-17T10:10:55.368Z,18.40
2017-08-17T10:13:22.376Z,16.73
2017-08-17T10:15:48.501Z,18.70
2017-08-17T10:18:14.477Z,16.37
2017-08-17T10:20:40.614Z,20.83
2017-08-17T10:23:08.587Z,16.93
2017-08-17T10:25:34.606Z,15.80
2017-08-17T10:28:00.973Z,16.10
2017-08-17T10:30:27.328Z,15.17
2017-08-17T10:32:54.206Z,13.80
2017-08-17T10:35:21.099Z,13.77
2017-08-17T10:37:48.020Z,15.57
2017-08-17T10:40:17.118Z,17.43
2017-08-17T10:42:44.899Z,15.23
2017-08-17T10:45:12.210Z,15.13
2017-08-17T10:47:38.847Z,16.47
2017-08-17T10:50:04.835Z,17.70
2017-08-17T10:52:30.855Z,14.70
2017-08-17T10:54:58.019Z,16.60
2017-08-17T10:57:23.972Z,15.37
2017-08-17T10:59:50.832Z,14.67
2017-08-17T11:02:17.444Z,13.23
2017-08-17T11:04:43.532Z,15.93
2017-08-17T11:07:09.452Z,14.07
2017-08-17T11:09:36.009Z,12.87
2017-08-17T11:12:02.001Z,13.50
2017-08-17T11:14:28.505Z,14.53
2017-08-17T11:16:54.701Z,15.40
2017-08-17T11:19:20.691Z,14.73
2017-08-17T11:21:46.839Z,14.03
2017-08-17T11:24:13.065Z,14.57
2017-08-17T11:26:39.005Z,15.37
2017-08-17T11:29:05.084Z,17.80
2017-08-17T11:31:31.028Z,16.90
2017-08-17T11:33:56.983Z,14.80
2017-08-17T11:36:22.973Z,13.97
2017-08-17T11:38:48.984Z,15.80
2017-08-17T11:41:14.996Z,15.33
2017-08-17T11:43:41.757Z,12.80
2017-08-17T11:46:07.694Z,11.80
2017-08-17T11:48:33.702Z,13.17
2017-08-17T11:50:59.625Z,12.33
2017-08-17T11:53:25.646Z,13.80
2017-08-17T11:55:51.708Z,12.83
2017-08-17T11:58:17.710Z,12.67
2017-08-17T12:00:46.194Z,11.43
2017-08-17T12:03:12.255Z,12.97
2017-08-17T12:05:39.877Z,12.17
2017-08-17T12:08:05.855Z,12.83
2017-08-17T12:13:12.174Z,14.70
2017-08-17T12:15:39.047Z,11.73
2017-08-17T12:18:05.920Z,13.03
2017-08-17T12:20:31.955Z,11.80
2017-08-17T12:22:59.021Z,10.80
2017-08-17T12:25:27.385Z,11.33
2017-08-17T12:27:53.475Z,10.30
2017-08-17T12:30:19.486Z,9.80
2017-08-17T12:32:50.108Z,9.63
2017-08-17T12:35:16.103Z,11.50
2017-08-17T12:37:42.108Z,8.73
2017-08-17T12:40:09.567Z,8.93
2017-08-17T12:42:35.610Z,8.43
2017-08-17T12:45:01.772Z,7.87
2017-08-17T12:47:29.538Z,8.70
2017-08-17T12:49:56.535Z,7.37
2017-08-17T12:52:22.501Z,6.67
2017-08-17T12:54:49.190Z,6.73
2017-08-17T12:57:15.738Z,6.27
2017-08-17T12:59:41.868Z,5.40
2017-08-17T13:02:07.988Z,5.90
2017-08-17T13:04:36.094Z,5.20
2017-08-17T13:07:02.838Z,5.10
2017-08-17T13:09:28.816Z,5.17
2017-08-17T13:11:54.799Z,5.53
2017-08-17T13:14:26.556Z,5.83
2017-08-17T13:16:53.877Z,6.30
2017-08-17T13:19:20.121Z,6.17
2017-08-17T13:21:46.656Z,5.53
2017-08-17T13:24:14.139Z,5.77
2017-08-17T13:26:41.024Z,6.13
2017-08-17T13:29:07.001Z,6.40
2017-08-17T13:31:33.005Z,5.10
2017-08-17T13:33:59.088Z,6.20
2017-08-17T13:36:26.161Z,6.43
2017-08-17T13:38:54.094Z,6.53
2017-08-17T13:41:20.168Z,6.60
2017-08-17T13:43:46.213Z,5.77
2017-08-17T13:46:12.849Z,5.77
2017-08-17T13:48:44.057Z,5.60
2017-08-17T13:51:10.133Z,5.37
2017-08-17T13:53:36.211Z,5.43
2017-08-17T13:56:03.315Z,5.60
2017-08-17T13:58:30.897Z,5.37
2017-08-17T14:00:58.198Z,5.40
2017-08-17T14:03:25.836Z,5.77
2017-08-17T14:05:52.239Z,6.30
2017-08-17T14:10:56.877Z,4.83
2017-08-17T14:13:23.829Z,5.23
2017-08-17T14:20:57.767Z,5.90
2017-08-17T14:23:26.671Z,5.20
2017-08-17T14:25:56.332Z,4.90
2017-08-17T14:28:23.438Z,6.10
2017-08-17T14:33:23.950Z,5.10
2017-08-17T14:35:54.231Z,5.20
2017-08-17T14:43:33.423Z,5.20
2017-08-17T14:48:39.683Z,4.80
2017-08-17T14:51:06.587Z,4.30
2017-08-17T14:56:13.607Z,3.70
2017-08-17T15:03:51.662Z,3.50
2017-08-17T15:11:27.740Z,3.40
2017-08-17T15:13:56.266Z,3.57
2017-08-17T15:21:34.881Z,3.70
2017-08-17T15:24:03.414Z,4.20
2017-08-17T15:44:34.023Z,4.10
2017-08-17T15:49:32.786Z,3.60
2017-08-17T15:52:01.837Z,2.93
2017-08-17T15:54:30.160Z,3.50
2017-08-17T16:15:09.720Z,3.23
2017-08-17T16:22:42.881Z,3.17
2017-08-17T16:25:09.855Z,3.93
2017-08-17T16:27:36.797Z,4.03
2017-08-17T16:30:02.978Z,2.90
2017-08-17T16:32:29.473Z,4.20
2017-08-17T16:34:58.900Z,3.03
2017-08-17T16:37:24.961Z,3.40
2017-08-17T16:39:51.918Z,3.00
2017-08-17T16:42:18.517Z,3.60
2017-08-17T16:44:46.268Z,2.83
2017-08-17T16:47:13.532Z,3.43
2017-08-17T16:49:40.662Z,4.13
2017-08-17T16:52:08.038Z,3.63
2017-08-17T16:54:35.051Z,3.23
2017-08-17T16:57:01.597Z,4.23
2017-08-17T16:59:27.659Z,3.40
2017-08-17T17:01:54.699Z,5.03
2017-08-17T17:04:20.728Z,3.67
2017-08-17T17:06:47.053Z,3.87
2017-08-17T17:09:13.183Z,4.37
2017-08-17T17:11:39.460Z,5.23
2017-08-17T17:14:08.157Z,3.33
2017-08-17T17:16:34.975Z,5.30
2017-08-17T17:19:00.960Z,2.93
2017-08-17T17:21:26.935Z,4.10
2017-08-17T17:23:53.044Z,3.23
2017-08-17T17:26:19.219Z,5.90
2017-08-17T17:28:45.299Z,3.00
2017-08-17T17:31:12.309Z,2.97
2017-08-17T17:33:38.934Z,3.07
2017-08-17T17:36:05.112Z,3.63
2017-08-17T17:38:31.222Z,3.23
2017-08-17T17:40:57.220Z,4.00
2017-08-17T17:43:23.225Z,3.17
2017-08-17T17:45:51.067Z,3.97
2017-08-17T17:48:17.261Z,3.60
2017-08-17T17:50:43.295Z,3.60
2017-08-17T17:53:10.886Z,5.30
2017-08-17T17:55:37.109Z,3.40
2017-08-17T17:58:03.316Z,3.70
2017-08-17T18:00:30.609Z,3.17
2017-08-17T18:02:56.566Z,4.13
2017-08-17T18:05:22.603Z,3.10
2017-08-17T18:07:48.619Z,3.90
2017-08-17T18:10:15.300Z,3.60
2017-08-17T18:12:41.408Z,4.00
2017-08-17T18:15:07.489Z,4.90
2017-08-17T18:17:33.595Z,3.57
2017-08-17T18:19:59.574Z,4.13
2017-08-17T18:22:25.659Z,4.43
2017-08-17T18:24:51.616Z,5.53
2017-08-17T18:27:18.288Z,3.33
2017-08-17T18:29:44.307Z,3.20
2017-08-17T18:32:10.252Z,3.77
2017-08-17T18:34:36.195Z,5.20
2017-08-17T18:37:02.907Z,3.90
2017-08-17T18:39:28.875Z,3.60
2017-08-17T18:41:54.809Z,3.43
2017-08-17T18:44:20.935Z,3.60
2017-08-17T18:46:46.869Z,5.80
2017-08-17T18:49:12.886Z,4.00
2017-08-17T18:51:38.951Z,6.20
2017-08-17T18:54:05.813Z,4.27
2017-08-17T18:56:31.940Z,4.83
2017-08-17T18:58:57.947Z,4.90
2017-08-17T19:01:24.846Z,6.77
2017-08-17T19:03:50.860Z,3.87
2017-08-17T19:06:16.851Z,4.90
2017-08-17T19:08:43.007Z,6.47
2017-08-17T19:11:09.023Z,7.03
2017-08-17T19:13:35.766Z,4.73
2017-08-17T19:16:01.807Z,4.30
2017-08-17T19:18:27.765Z,5.43
2017-08-17T19:20:53.730Z,4.30
2017-08-17T19:23:20.506Z,3.90
2017-08-17T19:25:46.468Z,4.53
2017-08-17T19:28:12.439Z,3.57
2017-08-17T19:30:38.468Z,3.47
2017-08-17T19:33:04.488Z,3.10
2017-08-17T19:35:32.001Z,3.27
2017-08-17T19:37:57.969Z,3.30
2017-08-17T19:40:24.651Z,2.83
2017-08-17T19:42:50.628Z,5.37
2017-08-17T19:45:16.650Z,4.73
2017-08-17T19:47:42.742Z,3.53
2017-08-17T19:50:08.725Z,4.23
2017-08-17T19:52:34.749Z,3.07
2017-08-17T19:55:00.947Z,3.43
2017-08-17T19:57:26.973Z,5.47
2017-08-17T19:59:52.943Z,3.13
2017-08-17T20:02:18.899Z,3.30
2017-08-17T20:04:44.954Z,4.20
2017-08-17T20:07:11.007Z,3.57
2017-08-17T20:09:36.983Z,3.50
2017-08-17T20:12:02.941Z,3.60
2017-08-17T20:14:29.520Z,3.53
2017-08-17T20:16:55.486Z,3.57
2017-08-17T20:19:21.521Z,5.03
2017-08-17T20:21:47.534Z,4.17
2017-08-17T20:24:13.686Z,3.60
2017-08-17T20:26:39.810Z,4.20
2017-08-17T20:29:05.865Z,3.83
2017-08-17T20:31:32.260Z,3.80
2017-08-17T20:33:58.723Z,3.20
2017-08-17T20:36:24.722Z,3.13
2017-08-17T20:38:50.882Z,3.60
2017-08-17T20:41:17.003Z,4.30
2017-08-17T20:43:43.101Z,4.13
2017-08-17T20:46:09.123Z,4.00
2017-08-17T20:48:35.981Z,4.03
2017-08-17T20:51:02.229Z,5.87
2017-08-17T20:53:28.416Z,7.90
2017-08-17T20:55:54.448Z,4.10
2017-08-17T20:58:20.466Z,3.47
2017-08-17T21:00:46.435Z,4.03
2017-08-17T21:03:12.392Z,4.07
2017-08-17T21:05:38.388Z,3.57
2017-08-17T21:08:04.451Z,3.37
2017-08-17T21:10:30.452Z,3.20
2017-08-17T21:12:56.460Z,3.40
2017-08-17T21:15:22.494Z,3.10
2017-08-17T21:17:48.528Z,3.00
2017-08-17T21:20:14.484Z,3.13
2017-08-17T21:22:41.077Z,3.60
2017-08-17T21:25:07.208Z,4.03
2017-08-17T21:27:33.238Z,3.67
2017-08-17T21:29:59.273Z,3.30
2017-08-17T21:32:25.285Z,3.17
2017-08-17T21:34:51.216Z,3.93
2017-08-17T21:37:17.203Z,3.87
2017-08-17T21:39:43.227Z,3.67
2017-08-17T21:42:09.264Z,3.27
2017-08-17T21:44:35.331Z,3.27
2017-08-17T21:47:01.325Z,3.30
2017-08-17T21:49:27.347Z,4.17
2017-08-17T21:51:53.299Z,3.90
2017-08-17T21:54:19.285Z,2.93
2017-08-17T21:56:45.248Z,3.40
2017-08-17T21:59:11.232Z,3.30
2017-08-17T22:01:37.191Z,3.50
2017-08-17T22:04:03.209Z,3.50
2017-08-17T22:06:29.233Z,3.23
2017-08-17T22:08:55.255Z,3.63
2017-08-17T22:11:21.238Z,3.80
2017-08-17T22:13:47.256Z,3.63
2017-08-17T22:16:13.375Z,4.67
2017-08-17T22:18:39.340Z,3.77
2017-08-17T22:21:05.318Z,3.83
2017-08-17T22:23:31.238Z,5.20
2017-08-17T22:25:57.204Z,4.10
2017-08-17T22:28:23.195Z,3.77
2017-08-17T22:30:49.213Z,4.57
2017-08-17T22:33:15.177Z,4.40
2017-08-17T22:35:41.108Z,4.17
2017-08-17T22:38:07.244Z,3.77
2017-08-17T22:40:33.944Z,5.10
2017-08-17T22:42:59.884Z,3.87
2017-08-17T22:45:25.874Z,3.57
2017-08-17T22:47:51.838Z,6.27
2017-08-17T22:50:17.800Z,4.73
2017-08-17T22:52:43.785Z,3.50
2017-08-17T22:55:09.802Z,4.17
2017-08-17T22:57:35.783Z,4.53
2017-08-17T23:00:01.972Z,3.43
2017-08-17T23:02:27.891Z,3.30
2017-08-17T23:04:53.904Z,4.10
2017-08-17T23:07:20.589Z,4.37
2017-08-17T23:09:46.537Z,3.90
2017-08-17T23:12:12.552Z,4.77
2017-08-17T23:14:38.480Z,5.20
2017-08-17T23:17:04.466Z,6.23
2017-08-17T23:19:30.423Z,6.00
2017-08-17T23:21:56.323Z,3.43
2017-08-17T23:24:22.282Z,4.13
2017-08-17T23:26:48.317Z,4.20
2017-08-17T23:29:14.313Z,3.73
2017-08-17T23:31:40.315Z,4.17
2017-08-17T23:34:06.327Z,4.93
2017-08-17T23:36:32.306Z,7.67
2017-08-17T23:38:58.255Z,6.27
2017-08-17T23:41:24.195Z,4.00
2017-08-17T23:43:50.200Z,4.97
2017-08-17T23:46:16.243Z,7.43
2017-08-17T23:48:42.246Z,4.20
2017-08-17T23:51:08.173Z,4.30
2017-08-17T23:53:34.178Z,4.43
2017-08-17T23:56:00.163Z,4.70
2017-08-17T23:58:26.445Z,5.57
